Hang Nadim, Indonesia

12:48 AM WIB on November 29, 2014 (GMT +0700)
HANG NADIM | Change Station
CLOSE
Current Station
Airport
Location: HANG NADIM,
Elevation: 125 ft
Nearby Weather Stations

Elev 125 ft 1.12 °N, 104.12 °E | Updated 18 minutes ago

Scattered Clouds
Scattered Clouds
81 °F
Feels Like 87 °F
N
2
Wind Variable Wind from NNW

Today
High -- | Low -- °F
--% Chance of Precip.
Yesterday
High -- | Low -- °F
Precip. -- in
5:49 AM 5:53 PM
Waxing Crescent, 42% visible
Pressure 29.80 in
Visibility 6.2 miles
Clouds Scattered Clouds 1800 ft
Scattered Clouds 2700 ft
Heat Index 87 °F
Dew Point 77 °F
Humidity 89%
Rainfall 0.00 in
Snow Depth Not available.
UV 0 out of 12
Pollen Not available.
Air Quality Not available.
Flu Activity Not available.
METAR WIDD 281730Z AUTO 33002KT 9999NDV SCT018 SCT027 27/25 Q1009

More Conditions Fewer Conditions

Pressure 29.80 in
Visibility 6.2 miles
Clouds Scattered Clouds 1800 ft
Scattered Clouds 2700 ft
Heat Index 87 °F
Dew Point 77 °F
Humidity 89%
Rainfall 0.00 in
Snow Depth Not available.
UV 0 out of 12
Pollen Not available.
Air Quality Not available.
Flu Activity Not available.
METAR WIDD 281730Z AUTO 33002KT 9999NDV SCT018 SCT027 27/25 Q1009

More Conditions Fewer Conditions

10-Day Weather Forecast

Almanac

Astronomy

Nov. 29, 2014 Rise Set
Actual Time
Civil Twilight
Nautical Twilight
Astronomical Twilight
Moon
Length of Visible Light
Length of Day
Tomorrow will be .
, % of the Moon is Illuminated

Today's Extremes

Country Highs Country Lows

Community

WunderPhotos

Upload Photos

1,774,245 photos uploaded!

WunderBlogs® & News

Nearby

Air Quality

  Air Quality AQ Index Pollutant
Not available.

Snow Depth

Station Depth Elevation

Earthquake Activity

City Distance Mag. Time & Date
Minimum magnitude displayed is 2.5.

Coastal Water Temperatures

Place Temperature

Nearby Weather Stations